Time;durP1;ratioP1;P1;durP2;ratioP2;P2;SDS_P1;SDS_P2;PMS_P1;PMS_P2;Temp;Humidity;BMP_temperature;BMP_pressure;BME280_temperature;BME280_humidity;BME280_pressure;Samples;Min_cycle;Max_cycle;Signal;HPM_P1;HPM_P2
2023/12/15 00:30:25;;;;;;;;;;;;;;;7.16;59.83;100397.83;106147;1259;59341;-86
2023/12/15 00:33:05;;;;;;;;;;;;;;;7.16;59.72;100411.69;106195;1253;72639;-83
2023/12/15 00:35:46;;;;;;;;;;;;;;;7.13;59.59;100416.66;106404;1256;68877;-87
2023/12/15 00:38:25;;;;;;;;;;;;;;;7.11;59.76;100413.09;106104;1256;73030;-84
2023/12/15 00:41:05;;;;;;;;;;;;;;;7.09;59.60;100415.37;106052;1260;60544;-87
2023/12/15 00:43:45;;;;;;;;;;;;;;;7.30;58.90;100425.89;106145;1253;60428;-86
2023/12/15 00:46:25;;;;;;;;;;;;;;;7.51;58.21;100423.19;106306;1253;73799;-83
2023/12/15 00:49:04;;;;;;;;;;;;;;;7.33;58.15;100426.52;106316;1259;67407;-86
2023/12/15 00:51:44;;;;;;;;;;;;;;;7.25;58.37;100427.86;106762;1253;70235;-86
2023/12/15 00:54:24;;;;;;;;;;;;;;;7.27;57.95;100431.14;106748;1256;60448;-87
2023/12/15 00:57:03;;;;;;;;;;;;;;;7.32;57.84;100443.04;106416;1258;60317;-83
2023/12/15 00:59:43;;;;;;;;;;;;;;;7.41;57.21;100452.51;106373;1254;72635;-87
2023/12/15 01:02:22;;;;;;;;;;;;;;;7.40;56.91;100454.25;106599;1259;68553;-83
2023/12/15 01:05:02;;;;;;;;;;;;;;;7.43;56.28;100453.14;106192;1253;72657;-83
2023/12/15 01:07:42;;;;;;;;;;;;;;;7.43;56.24;100447.32;106348;1258;60530;-83
2023/12/15 01:10:26;;;;;;;;;;;;;;;7.55;55.91;100455.47;106187;1253;60555;-87
2023/12/15 01:13:06;;;;;;;;;;;;;;;7.61;55.55;100456.88;106276;1253;73833;-88
2023/12/15 01:15:46;;;;;;;;;;;;;;;7.52;55.55;100458.55;106199;1253;68346;-88
2023/12/15 01:18:25;;;;;;;;;;;;;;;7.14;56.69;100466.67;106226;1256;72373;-88
2023/12/15 01:21:05;;;;;;;;;;;;;;;7.11;56.79;100476.58;106493;1252;60405;-88
2023/12/15 01:23:45;;;;;;;;;;;;;;;7.13;56.42;100482.53;106204;1253;60442;-88
2023/12/15 01:26:25;;;;;;;;;;;;;;;7.04;57.06;100485.10;106216;1253;72560;-87
2023/12/15 01:29:05;;;;;;;;;;;;;;;7.07;57.13;100491.76;106270;1252;67247;-84
2023/12/15 01:31:45;;;;;;;;;;;;;;;7.09;56.93;100496.02;106415;1256;71425;-84
2023/12/15 01:34:25;;;;;;;;;;;;;;;7.37;56.21;100494.08;106210;1256;60415;-88
2023/12/15 01:37:05;;;;;;;;;;;;;;;7.50;55.25;100499.37;106332;1253;60607;-84
2023/12/15 01:39:44;;;;;;;;;;;;;;;7.56;54.97;100495.52;106552;1257;73876;-88
2023/12/15 01:42:26;;;;;;;;;;;;;;;7.30;55.43;100488.36;106122;1257;68775;-84
2023/12/15 01:45:05;;;;;;;;;;;;;;;7.49;55.01;100485.44;106313;1256;71382;-84
2023/12/15 01:47:45;;;;;;;;;;;;;;;7.55;54.85;100489.30;106230;1253;60489;-88
2023/12/15 01:50:25;;;;;;;;;;;;;;;7.58;54.81;100487.38;106327;1253;60518;-84
2023/12/15 01:53:04;;;;;;;;;;;;;;;7.62;54.78;100493.38;106184;1258;74368;-88
2023/12/15 01:55:40;;;;;;;;;;;;;;;7.58;54.81;100493.23;106120;1254;67294;-88
2023/12/15 01:58:15;;;;;;;;;;;;;;;7.55;54.78;100489.35;106191;1255;71410;-85
2023/12/15 02:00:50;;;;;;;;;;;;;;;7.49;54.94;100503.16;106250;1258;60405;-84
2023/12/15 02:03:28;;;;;;;;;;;;;;;7.55;54.89;100507.19;106323;1253;60342;-84
2023/12/15 02:06:04;;;;;;;;;;;;;;;7.58;54.77;100507.77;106313;1253;72683;-88
2023/12/15 02:08:44;;;;;;;;;;;;;;;7.70;54.47;100518.42;106214;1256;68315;-84
2023/12/15 02:11:19;;;;;;;;;;;;;;;7.28;55.38;100523.77;106154;1259;71725;-88
2023/12/15 02:13:54;;;;;;;;;;;;;;;6.80;56.96;100532.90;106171;1256;60503;-84
2023/12/15 02:16:29;;;;;;;;;;;;;;;6.86;57.21;100528.58;106333;1253;60454;-84
2023/12/15 02:19:04;;;;;;;;;;;;;;;6.93;57.16;100529.80;106461;1254;74421;-84
2023/12/15 02:21:39;;;;;;;;;;;;;;;6.92;56.80;100536.20;106321;1253;67158;-88
2023/12/15 02:24:17;;;;;;;;;;;;;;;6.80;57.48;100539.68;106267;1259;71389;-85
2023/12/15 02:26:53;;;;;;;;;;;;;;;6.97;56.84;100543.26;106328;1257;60567;-83
2023/12/15 02:29:30;;;;;;;;;;;;;;;6.89;57.05;100542.73;106179;1258;60516;-83
2023/12/15 02:32:06;;;;;;;;;;;;;;;6.86;57.64;100551.01;106288;1253;73867;-84
2023/12/15 02:34:42;;;;;;;;;;;;;;;6.93;57.25;100560.77;106370;1254;68355;-88
2023/12/15 02:37:17;;;;;;;;;;;;;;;6.81;57.37;100568.27;106250;1254;72701;-89
2023/12/15 02:39:52;;;;;;;;;;;;;;;6.86;57.04;100570.08;106176;1254;60472;-87
2023/12/15 02:42:27;;;;;;;;;;;;;;;7.10;55.99;100576.30;106337;1254;60524;-84
2023/12/15 02:45:02;;;;;;;;;;;;;;;7.12;55.92;100581.55;106370;1258;72726;-88
2023/12/15 02:47:38;;;;;;;;;;;;;;;6.97;56.00;100585.11;106532;1256;68800;-88
2023/12/15 02:50:13;;;;;;;;;;;;;;;7.02;55.67;100589.14;106427;1254;72578;-84
2023/12/15 02:52:48;;;;;;;;;;;;;;;7.10;55.47;100594.39;106434;1254;63046;-84
2023/12/15 02:55:24;;;;;;;;;;;;;;;7.42;54.35;100596.95;106331;1257;60539;-88
2023/12/15 02:57:59;;;;;;;;;;;;;;;7.40;54.03;100602.53;106364;1253;72869;-84
2023/12/15 03:00:34;;;;;;;;;;;;;;;7.44;53.62;100619.55;106494;1253;68837;-84
2023/12/15 03:03:09;;;;;;;;;;;;;;;7.44;53.61;100625.73;106245;1260;71106;-84
2023/12/15 03:05:44;;;;;;;;;;;;;;;7.56;53.27;100630.06;106228;1254;60432;-84
2023/12/15 03:08:19;;;;;;;;;;;;;;;7.41;53.69;100628.92;106021;1259;60440;-84
2023/12/15 03:10:57;;;;;;;;;;;;;;;7.24;54.15;100631.21;106386;1258;72836;-88
2023/12/15 03:13:34;;;;;;;;;;;;;;;7.17;54.47;100638.77;106165;1260;68413;-84
2023/12/15 03:16:10;;;;;;;;;;;;;;;7.25;54.04;100642.97;106470;1253;72680;-84
2023/12/15 03:18:44;;;;;;;;;;;;;;;7.06;54.91;100644.89;106222;1256;60458;-84
2023/12/15 03:21:17;;;;;;;;;;;;;;;7.03;55.09;100649.64;106181;1260;60567;-84
2023/12/15 03:23:51;;;;;;;;;;;;;;;6.92;55.02;100651.38;106337;1253;72626;-84
2023/12/15 03:26:26;;;;;;;;;;;;;;;6.88;55.20;100650.63;106468;1258;67232;-88
2023/12/15 03:28:59;;;;;;;;;;;;;;;6.73;55.85;100643.29;106119;1254;73216;-84
2023/12/15 03:31:33;;;;;;;;;;;;;;;6.75;55.76;100644.45;106369;1255;60539;-89
2023/12/15 03:34:07;;;;;;;;;;;;;;;6.82;55.34;100647.92;106529;1257;60549;-87
2023/12/15 03:36:41;;;;;;;;;;;;;;;7.02;54.92;100644.88;106239;1253;74768;-87
2023/12/15 03:39:15;;;;;;;;;;;;;;;7.11;54.72;100638.77;106290;1259;67110;-83
2023/12/15 03:41:48;;;;;;;;;;;;;;;7.20;54.19;100639.20;106516;1258;71380;-83
2023/12/15 03:44:22;;;;;;;;;;;;;;;7.16;53.83;100643.34;106449;1256;60338;-83
2023/12/15 03:46:56;;;;;;;;;;;;;;;7.07;54.42;100647.73;106290;1253;60396;-83
2023/12/15 03:49:29;;;;;;;;;;;;;;;7.24;53.83;100654.36;106524;1253;72559;-83
2023/12/15 03:52:03;;;;;;;;;;;;;;;7.33;53.66;100654.04;106361;1256;68357;-83
2023/12/15 03:54:37;;;;;;;;;;;;;;;7.32;53.55;100652.30;106264;1258;72739;-87
2023/12/15 03:57:10;;;;;;;;;;;;;;;7.35;53.40;100658.10;106272;1254;60660;-86
2023/12/15 03:59:44;;;;;;;;;;;;;;;7.09;54.14;100668.63;106411;1253;60427;-87
2023/12/15 04:02:20;;;;;;;;;;;;;;;6.95;55.01;100680.54;106291;1253;72709;-87
2023/12/15 04:04:54;;;;;;;;;;;;;;;6.96;55.09;100689.80;106402;1253;68864;-83
2023/12/15 04:07:28;;;;;;;;;;;;;;;7.07;54.86;100690.13;106183;1253;71228;-87
2023/12/15 04:10:02;;;;;;;;;;;;;;;7.04;54.97;100689.38;106284;1259;60522;-83
2023/12/15 04:12:36;;;;;;;;;;;;;;;7.06;54.85;100698.27;106198;1254;60445;-87
2023/12/15 04:15:09;;;;;;;;;;;;;;;7.13;54.63;100708.07;106451;1259;73781;-87
2023/12/15 04:17:43;;;;;;;;;;;;;;;7.03;55.02;100703.33;106309;1258;66457;-83
2023/12/15 04:20:18;;;;;;;;;;;;;;;6.99;54.92;100711.63;106137;1259;72825;-83
2023/12/15 04:22:51;;;;;;;;;;;;;;;7.09;55.05;100713.63;106407;1259;60496;-87
2023/12/15 04:25:25;;;;;;;;;;;;;;;7.36;54.07;100719.59;106390;1256;60352;-83
2023/12/15 04:27:59;;;;;;;;;;;;;;;7.37;54.00;100731.47;106450;1254;72665;-87
2023/12/15 04:30:32;;;;;;;;;;;;;;;7.10;54.87;100742.06;106340;1259;68488;-87
2023/12/15 04:33:06;;;;;;;;;;;;;;;7.11;54.53;100745.79;106242;1254;72754;-83
2023/12/15 04:35:40;;;;;;;;;;;;;;;7.01;55.10;100746.83;106370;1256;60293;-87
2023/12/15 04:38:13;;;;;;;;;;;;;;;7.03;55.26;100748.77;106248;1258;61952;-83
2023/12/15 04:40:47;;;;;;;;;;;;;;;7.37;54.43;100756.91;106250;1253;73776;-83
2023/12/15 04:43:21;;;;;;;;;;;;;;;7.50;53.55;100755.24;106257;1257;67293;-87
2023/12/15 04:45:55;;;;;;;;;;;;;;;7.50;53.66;100760.10;106140;1260;72731;-83
2023/12/15 04:48:32;;;;;;;;;;;;;;;7.52;53.68;100757.28;106271;1258;60537;-87
2023/12/15 04:51:06;;;;;;;;;;;;;;;7.43;53.72;100754.94;106453;1259;60345;-83
2023/12/15 04:53:40;;;;;;;;;;;;;;;7.46;53.65;100754.52;106285;1253;72588;-84
2023/12/15 04:56:13;;;;;;;;;;;;;;;7.45;53.36;100757.55;106246;1259;68444;-84
2023/12/15 04:58:47;;;;;;;;;;;;;;;7.43;52.92;100762.37;106167;1260;72293;-83
2023/12/15 05:01:21;;;;;;;;;;;;;;;7.43;52.97;100760.54;106279;1257;60455;-86
2023/12/15 05:03:55;;;;;;;;;;;;;;;7.28;52.95;100764.19;106373;1253;60313;-87
2023/12/15 05:06:28;;;;;;;;;;;;;;;7.23;53.14;100772.88;106505;1254;73859;-83
2023/12/15 05:09:08;;;;;;;;;;;;;;;7.29;52.84;100774.52;106396;1253;68550;-86
2023/12/15 05:11:42;;;;;;;;;;;;;;;7.27;52.66;100778.24;106406;1258;72696;-84
2023/12/15 05:14:16;;;;;;;;;;;;;;;7.06;52.97;100786.30;106224;1259;60579;-86
2023/12/15 05:16:50;;;;;;;;;;;;;;;6.94;53.06;100797.64;106280;1253;60537;-83
2023/12/15 05:19:23;;;;;;;;;;;;;;;7.04;52.74;100806.27;106322;1253;72655;-84
2023/12/15 05:21:57;;;;;;;;;;;;;;;6.85;53.08;100817.54;106548;1256;67088;-87
2023/12/15 05:24:34;;;;;;;;;;;;;;;6.84;52.84;100833.16;106322;1258;72717;-87
2023/12/15 05:27:08;;;;;;;;;;;;;;;6.78;52.57;100839.73;106331;1258;60549;-87
2023/12/15 05:29:47;;;;;;;;;;;;;;;6.63;52.81;100835.56;106213;1259;60448;-83
2023/12/15 05:32:21;;;;;;;;;;;;;;;6.67;52.49;100832.91;106257;1258;72899;-87
2023/12/15 05:34:55;;;;;;;;;;;;;;;6.53;53.25;100834.22;106447;1257;68436;-83
2023/12/15 05:37:29;;;;;;;;;;;;;;;6.52;53.13;100836.64;106393;1261;71533;-84
2023/12/15 05:40:03;;;;;;;;;;;;;;;6.75;52.86;100835.08;106601;1255;60800;-84
2023/12/15 05:42:37;;;;;;;;;;;;;;;6.68;52.79;100840.75;106641;1258;60432;-87
2023/12/15 05:45:11;;;;;;;;;;;;;;;6.85;52.38;100848.17;106319;1253;74090;-83
2023/12/15 05:47:46;;;;;;;;;;;;;;;6.86;52.47;100862.48;106329;1257;70793;-87
2023/12/15 05:50:20;;;;;;;;;;;;;;;6.86;52.00;100871.60;106237;1256;72479;-84
2023/12/15 05:52:54;;;;;;;;;;;;;;;6.57;52.47;100880.30;106207;1257;61361;-87
2023/12/15 05:55:27;;;;;;;;;;;;;;;6.73;52.36;100886.90;106274;1258;61255;-88
2023/12/15 05:58:01;;;;;;;;;;;;;;;6.84;51.61;100897.98;106294;1254;74615;-88
2023/12/15 06:00:35;;;;;;;;;;;;;;;6.62;52.26;100900.27;106379;1254;68313;-83
2023/12/15 06:03:09;;;;;;;;;;;;;;;6.78;51.42;100897.48;106225;1268;74671;-87
2023/12/15 06:05:43;;;;;;;;;;;;;;;6.56;52.19;100900.43;106637;1260;61283;-88
2023/12/15 06:08:17;;;;;;;;;;;;;;;6.57;51.97;100904.25;106373;1254;61257;-87
2023/12/15 06:10:51;;;;;;;;;;;;;;;6.57;52.02;100910.55;106304;1258;74569;-83
2023/12/15 06:13:24;;;;;;;;;;;;;;;6.65;51.70;100918.56;106323;1255;68522;-83
2023/12/15 06:15:58;;;;;;;;;;;;;;;6.74;51.35;100926.63;106064;1254;71142;-84
2023/12/15 06:18:32;;;;;;;;;;;;;;;6.73;51.38;100924.49;106387;1254;61289;-87
2023/12/15 06:21:06;;;;;;;;;;;;;;;6.66;51.63;100935.23;106269;1254;61233;-83
2023/12/15 06:23:40;;;;;;;;;;;;;;;6.68;51.68;100940.58;106280;1259;74653;-83
2023/12/15 06:26:23;;;;;;;;;;;;;;;6.74;51.51;100951.52;106250;1259;68727;-87
2023/12/15 06:28:57;;;;;;;;;;;;;;;6.90;51.18;100960.24;106218;1259;71452;-83
2023/12/15 06:31:31;;;;;;;;;;;;;;;7.01;51.13;100958.60;106268;1259;61255;-83
2023/12/15 06:34:05;;;;;;;;;;;;;;;6.92;51.16;100968.05;106181;1257;61421;-87
2023/12/15 06:36:39;;;;;;;;;;;;;;;6.78;51.55;100972.02;106376;1257;73097;-87
2023/12/15 06:39:13;;;;;;;;;;;;;;;6.89;51.65;100975.98;106332;1255;66168;-87
2023/12/15 06:41:47;;;;;;;;;;;;;;;6.97;51.31;100974.34;106172;1260;72714;-87
2023/12/15 06:44:21;;;;;;;;;;;;;;;7.18;50.90;100965.27;106371;1254;61330;-83
2023/12/15 06:46:55;;;;;;;;;;;;;;;7.20;50.78;100962.91;106362;1257;59830;-84
2023/12/15 06:49:31;;;;;;;;;;;;;;;7.08;51.22;100961.72;106284;1260;74582;-86
2023/12/15 06:52:05;;;;;;;;;;;;;;;7.06;51.10;100966.30;106218;1258;67644;-87
2023/12/15 06:54:39;;;;;;;;;;;;;;;7.12;50.93;100972.07;106307;1254;72657;-87
2023/12/15 06:57:13;;;;;;;;;;;;;;;7.28;50.72;100976.23;106582;1257;61253;-86
2023/12/15 06:59:47;;;;;;;;;;;;;;;7.55;50.41;100980.05;106277;1254;61305;-86
2023/12/15 07:02:21;;;;;;;;;;;;;;;7.59;49.92;100982.35;106421;1257;72921;-87
2023/12/15 07:04:55;;;;;;;;;;;;;;;7.45;50.12;100983.04;106341;1254;68350;-87
2023/12/15 07:07:28;;;;;;;;;;;;;;;7.78;49.65;100987.16;106264;1259;72694;-87
2023/12/15 07:10:03;;;;;;;;;;;;;;;7.60;49.95;100989.98;106266;1266;61370;-87
2023/12/15 07:12:36;;;;;;;;;;;;;;;7.19;50.93;100989.75;106746;1254;61157;-87
2023/12/15 07:15:10;;;;;;;;;;;;;;;7.08;51.15;100992.20;106324;1255;74686;-87
2023/12/15 07:17:45;;;;;;;;;;;;;;;7.03;51.46;100998.09;106311;1254;69191;-87
2023/12/15 07:20:19;;;;;;;;;;;;;;;7.24;51.29;100996.64;106432;1256;72650;-87
2023/12/15 07:22:53;;;;;;;;;;;;;;;7.04;51.82;100999.94;106285;1256;61335;-88
2023/12/15 07:25:27;;;;;;;;;;;;;;;7.03;52.41;100999.73;106295;1253;61175;-87
2023/12/15 07:28:01;;;;;;;;;;;;;;;7.11;52.21;101001.71;106289;1258;73441;-87
2023/12/15 07:30:34;;;;;;;;;;;;;;;7.03;52.17;101000.86;106344;1254;68538;-87
2023/12/15 07:33:08;;;;;;;;;;;;;;;7.16;51.97;101011.50;106412;1254;72764;-87
2023/12/15 07:35:42;;;;;;;;;;;;;;;7.30;51.54;101015.89;106313;1254;61225;-86
2023/12/15 07:38:16;;;;;;;;;;;;;;;7.48;50.90;101016.70;106282;1254;61157;-86
2023/12/15 07:40:54;;;;;;;;;;;;;;;7.48;50.80;101013.77;106360;1254;73488;-86
2023/12/15 07:43:22;;;;;;;;;;;;;;;7.52;50.68;101008.23;106368;1257;68429;-87
2023/12/15 07:45:54;;;;;;;;;;;;;;;7.65;50.69;101006.98;106367;1257;72376;-87
2023/12/15 07:48:28;;;;;;;;;;;;;;;7.71;50.63;101004.92;106439;1260;61217;-87
2023/12/15 07:51:00;;;;;;;;;;;;;;;7.67;50.56;101016.39;106297;1254;61248;-88
2023/12/15 07:53:32;;;;;;;;;;;;;;;7.72;50.63;101023.98;106063;1254;72638;-89
2023/12/15 07:56:05;;;;;;;;;;;;;;;7.77;50.62;101033.41;106362;1253;68835;-87
2023/12/15 07:58:39;;;;;;;;;;;;;;;8.05;50.29;101041.21;106368;1254;72690;-87
2023/12/15 08:01:13;;;;;;;;;;;;;;;8.08;50.28;101046.70;106332;1254;61298;-87
2023/12/15 08:03:47;;;;;;;;;;;;;;;8.07;50.24;101049.09;106426;1254;61199;-87
2023/12/15 08:06:20;;;;;;;;;;;;;;;7.91;50.65;101056.72;106572;1254;74677;-87
2023/12/15 08:08:54;;;;;;;;;;;;;;;8.00;50.47;101054.48;106382;1256;68369;-87
2023/12/15 08:11:26;;;;;;;;;;;;;;;8.05;50.26;101059.63;106212;1254;72769;-88
2023/12/15 08:13:59;;;;;;;;;;;;;;;7.99;50.49;101064.08;106275;1253;61278;-89
2023/12/15 08:16:33;;;;;;;;;;;;;;;8.16;50.43;101081.02;106297;1254;61358;-87
2023/12/15 08:19:06;;;;;;;;;;;;;;;8.26;50.62;101082.58;106505;1253;74611;-87
2023/12/15 08:21:39;;;;;;;;;;;;;;;8.20;50.73;101086.25;106009;1254;216634;-89
2023/12/15 08:24:12;;;;;;;;;;;;;;;8.00;51.15;101094.44;106120;1257;71534;-90
2023/12/15 08:26:45;;;;;;;;;;;;;;;7.99;51.14;101097.85;106317;1253;61237;-87
2023/12/15 12:29:48;;;;;;;;;;;;;;;8.66;51.07;101378.29;106301;1255;76584;-88
2023/12/15 12:32:16;;;;;;;;;;;;;;;8.71;51.10;101381.60;106255;1253;68848;-88
2023/12/15 12:34:50;;;;;;;;;;;;;;;8.67;51.26;101380.70;106335;1254;72649;-87
2023/12/15 12:37:32;;;;;;;;;;;;;;;8.71;51.33;101382.20;106390;1254;61171;-88
2023/12/15 12:40:00;;;;;;;;;;;;;;;8.73;51.35;101388.11;106321;1259;61241;-88
2023/12/15 12:42:33;;;;;;;;;;;;;;;8.82;51.19;101393.30;106158;1254;73423;-88
2023/12/15 12:45:08;;;;;;;;;;;;;;;8.92;51.04;101395.55;106350;1253;70855;-89
2023/12/15 12:47:44;;;;;;;;;;;;;;;8.94;51.02;101403.05;106275;1258;74854;-89
2023/12/15 12:50:17;;;;;;;;;;;;;;;9.01;50.86;101407.77;106456;1253;61685;-90
2023/12/15 12:52:51;;;;;;;;;;;;;;;8.98;50.99;101409.73;106296;1253;61176;-89
2023/12/15 12:55:28;;;;;;;;;;;;;;;9.00;51.04;101410.25;106363;1254;75890;-87
2023/12/15 12:58:07;;;;;;;;;;;;;;;9.03;50.90;101415.89;106255;1253;70704;-89
2023/12/15 13:00:43;;;;;;;;;;;;;;;9.19;50.72;101421.27;106290;1253;74112;-88
2023/12/15 13:03:23;;;;;;;;;;;;;;;9.30;50.34;101423.10;106378;1254;61811;-86
2023/12/15 13:06:03;;;;;;;;;;;;;;;9.32;50.40;101425.31;106256;1253;61323;-88
2023/12/15 13:08:37;;;;;;;;;;;;;;;9.37;50.34;101428.49;106208;1253;76638;-88
2023/12/15 13:11:11;;;;;;;;;;;;;;;9.29;50.41;101433.02;106298;1254;68666;-88
2023/12/15 13:13:51;;;;;;;;;;;;;;;9.13;50.62;101436.66;106166;1258;72707;-88
2023/12/15 13:16:30;;;;;;;;;;;;;;;9.19;50.77;101438.67;106260;1256;61286;-88
2023/12/15 13:19:05;;;;;;;;;;;;;;;9.23;50.59;101435.48;106180;1255;61103;-88
2023/12/15 13:21:39;;;;;;;;;;;;;;;9.10;50.94;101438.45;106336;1257;75751;-88
2023/12/15 13:24:17;;;;;;;;;;;;;;;9.09;50.99;101435.10;106304;1256;69387;-88
2023/12/15 13:26:50;;;;;;;;;;;;;;;9.09;51.08;101439.09;106276;1253;72640;-88
2023/12/15 13:29:24;;;;;;;;;;;;;;;9.12;51.11;101442.10;106356;1253;61300;-88
2023/12/15 13:32:03;;;;;;;;;;;;;;;9.19;51.04;101448.70;106375;1253;61431;-88
2023/12/15 13:34:37;;;;;;;;;;;;;;;9.32;50.68;101451.49;106449;1253;75653;-88
2023/12/15 13:37:17;;;;;;;;;;;;;;;9.41;50.49;101449.36;106313;1258;70130;-87
2023/12/15 13:39:51;;;;;;;;;;;;;;;9.36;50.62;101450.42;106150;1256;73438;-88
2023/12/15 13:42:25;;;;;;;;;;;;;;;9.26;51.01;101445.55;106460;1256;61206;-88
2023/12/15 13:44:58;;;;;;;;;;;;;;;9.10;51.32;101442.44;106228;1253;61765;-86
2023/12/15 13:47:33;;;;;;;;;;;;;;;9.10;51.54;101440.19;106287;1258;74947;-87
2023/12/15 13:50:08;;;;;;;;;;;;;;;9.17;51.25;101442.29;106305;1258;70970;-85
2023/12/15 13:52:42;;;;;;;;;;;;;;;9.17;51.44;101447.25;106217;1255;71632;-87
2023/12/15 13:55:16;;;;;;;;;;;;;;;9.13;51.52;101455.59;106269;1254;61344;-87
2023/12/15 13:57:51;;;;;;;;;;;;;;;9.16;51.48;101463.70;106329;1253;61327;-87
2023/12/15 14:00:31;;;;;;;;;;;;;;;9.18;51.69;101472.14;106328;1253;76948;-88
2023/12/15 14:03:09;;;;;;;;;;;;;;;9.19;51.51;101481.27;106389;1258;69837;-87
2023/12/15 14:05:49;;;;;;;;;;;;;;;9.17;51.60;101486.41;106238;1253;71377;-87
2023/12/15 14:08:29;;;;;;;;;;;;;;;9.13;51.85;101488.95;106315;1255;61160;-87
2023/12/15 14:11:04;;;;;;;;;;;;;;;9.15;51.95;101489.57;106184;1259;61154;-87
2023/12/15 14:13:38;;;;;;;;;;;;;;;9.14;52.13;101490.60;106209;1253;75278;-87
2023/12/15 14:16:18;;;;;;;;;;;;;;;9.19;51.94;101485.95;106188;1258;69796;-88
2023/12/15 14:19:06;;;;;;;;;;;;;;;9.30;51.76;101483.77;106252;1253;72194;-87
2023/12/15 14:21:45;;;;;;;;;;;;;;;9.38;51.51;101483.72;106433;1253;61205;-87
2023/12/15 14:24:17;;;;;;;;;;;;;;;9.35;51.57;101490.88;106303;1253;61324;-87
2023/12/15 14:26:52;;;;;;;;;;;;;;;9.36;51.55;101500.34;106116;1253;77164;-87
2023/12/15 14:29:26;;;;;;;;;;;;;;;9.41;51.49;101505.50;106329;1254;69284;-87
2023/12/15 14:32:00;;;;;;;;;;;;;;;9.36;51.66;101515.18;106304;1253;71985;-87
2023/12/15 14:34:34;;;;;;;;;;;;;;;9.37;51.76;101517.05;106347;1258;61479;-88
2023/12/15 14:37:08;;;;;;;;;;;;;;;9.39;51.61;101520.52;106304;1253;61915;-88
2023/12/15 14:39:51;;;;;;;;;;;;;;;9.33;51.76;101525.48;106258;1253;76822;-87
2023/12/15 14:42:24;;;;;;;;;;;;;;;9.18;52.18;101525.88;106364;1257;68363;-88
2023/12/15 14:44:52;;;;;;;;;;;;;;;9.06;52.56;101525.19;106308;1253;74649;-87
2023/12/15 14:47:26;;;;;;;;;;;;;;;9.09;52.59;101533.27;106266;1253;61350;-88
2023/12/15 14:50:07;;;;;;;;;;;;;;;9.02;52.79;101533.90;106223;1255;62154;-87
2023/12/15 14:52:42;;;;;;;;;;;;;;;9.01;52.83;101536.01;106428;1253;76714;-88
2023/12/15 14:55:16;;;;;;;;;;;;;;;9.09;52.66;101535.73;106356;1254;71392;-87
2023/12/15 14:57:56;;;;;;;;;;;;;;;9.09;52.70;101535.34;106052;1254;74009;-88
2023/12/15 15:00:36;;;;;;;;;;;;;;;9.06;52.78;101534.52;106295;1253;61180;-88
2023/12/15 15:03:03;;;;;;;;;;;;;;;9.08;52.86;101537.55;106328;1254;61252;-87
2023/12/15 15:05:44;;;;;;;;;;;;;;;9.15;52.75;101536.82;106909;1253;75747;-88
2023/12/15 15:08:23;;;;;;;;;;;;;;;9.15;52.59;101539.39;106547;1253;70373;-88
2023/12/15 15:11:03;;;;;;;;;;;;;;;9.34;52.29;101537.13;106489;1254;73438;-90
2023/12/15 15:13:31;;;;;;;;;;;;;;;9.33;52.17;101532.52;106450;1254;62572;-86
2023/12/15 15:16:11;;;;;;;;;;;;;;;9.33;52.38;101539.77;106330;1254;61335;-88
2023/12/15 15:18:51;;;;;;;;;;;;;;;9.22;52.59;101543.95;106463;1253;75797;-88
2023/12/15 15:21:31;;;;;;;;;;;;;;;9.16;52.64;101548.02;106199;1253;68408;-88
2023/12/15 15:23:59;;;;;;;;;;;;;;;9.32;52.46;101551.27;106464;1254;72867;-88
2023/12/15 15:26:32;;;;;;;;;;;;;;;9.36;52.29;101555.73;106506;1253;61227;-88
2023/12/15 15:29:06;;;;;;;;;;;;;;;9.30;52.47;101556.20;106603;1255;61184;-88
2023/12/15 15:31:40;;;;;;;;;;;;;;;9.27;52.39;101560.95;106590;1253;76080;-88
2023/12/15 15:34:16;;;;;;;;;;;;;;;9.21;52.66;101563.23;106549;1258;70553;-88
2023/12/15 15:36:50;;;;;;;;;;;;;;;9.04;53.26;101562.08;106544;1253;73597;-88
2023/12/15 15:39:24;;;;;;;;;;;;;;;8.92;53.76;101568.00;106343;1254;61314;-88
2023/12/15 15:41:58;;;;;;;;;;;;;;;8.97;53.77;101571.25;106200;1257;61410;-89
2023/12/15 15:44:31;;;;;;;;;;;;;;;9.05;53.80;101574.48;106273;1253;76842;-88
2023/12/15 15:47:05;;;;;;;;;;;;;;;9.25;53.44;101572.67;106306;1253;70483;-88
2023/12/15 15:49:41;;;;;;;;;;;;;;;9.30;53.26;101576.23;106154;1254;75131;-88
2023/12/15 15:52:15;;;;;;;;;;;;;;;9.16;53.71;101582.83;106192;1254;61278;-88
2023/12/15 15:54:43;;;;;;;;;;;;;;;9.26;53.59;101585.58;106184;1254;61207;-88
2023/12/15 15:57:17;;;;;;;;;;;;;;;9.30;53.48;101590.36;106199;1253;74640;-88
2023/12/15 15:59:57;;;;;;;;;;;;;;;9.32;53.58;101598.58;106166;1256;67741;-88
2023/12/15 16:02:24;;;;;;;;;;;;;;;9.18;53.93;101606.69;106106;1254;71273;-88
2023/12/15 16:04:58;;;;;;;;;;;;;;;9.18;54.12;101612.27;106007;1259;61277;-88
2023/12/15 16:07:38;;;;;;;;;;;;;;;9.05;54.46;101611.73;106093;1254;61346;-88
2023/12/15 16:10:19;;;;;;;;;;;;;;;9.03;54.67;101615.94;106298;1259;74677;-88
2023/12/15 16:12:49;;;;;;;;;;;;;;;8.89;55.28;101621.46;106331;1253;70928;-88
2023/12/15 16:15:29;;;;;;;;;;;;;;;8.87;55.63;101624.21;106202;1254;75196;-87
2023/12/15 16:18:09;;;;;;;;;;;;;;;8.86;55.78;101629.14;106431;1258;61311;-88
2023/12/15 16:20:46;;;;;;;;;;;;;;;8.97;55.69;101626.06;106324;1258;61225;-88
2023/12/15 16:23:14;;;;;;;;;;;;;;;9.08;55.59;101631.19;106225;1253;75939;-89
2023/12/15 16:25:48;;;;;;;;;;;;;;;9.18;55.26;101638.28;106141;1258;69911;-87
2023/12/15 16:28:28;;;;;;;;;;;;;;;9.19;55.40;101639.34;106151;1256;70981;-88
2023/12/15 16:31:02;;;;;;;;;;;;;;;9.41;54.83;101647.95;106252;1258;61270;-88
2023/12/15 16:33:40;;;;;;;;;;;;;;;9.33;55.09;101652.61;105995;1253;61324;-88
2023/12/15 16:36:26;;;;;;;;;;;;;;;9.27;55.36;101654.77;106101;1260;74628;-88
2023/12/15 16:39:12;;;;;;;;;;;;;;;9.22;55.47;101659.30;106071;1253;70408;-88
2023/12/15 16:41:52;;;;;;;;;;;;;;;8.88;56.79;101661.02;106494;1256;72890;-89
2023/12/15 16:44:31;;;;;;;;;;;;;;;8.88;57.36;101666.09;106505;1256;61347;-89
2023/12/15 16:47:11;;;;;;;;;;;;;;;8.96;57.45;101670.20;106394;1258;61161;-88
2023/12/15 16:49:51;;;;;;;;;;;;;;;9.00;57.49;101673.14;106820;1255;75009;-88
2023/12/15 16:52:30;;;;;;;;;;;;;;;8.91;58.11;101674.88;106190;1253;70800;-88
2023/12/15 16:55:11;;;;;;;;;;;;;;;8.84;58.73;101682.89;106389;1254;74922;-88
2023/12/15 16:57:55;;;;;;;;;;;;;;;8.83;59.19;101686.80;106392;1254;61929;-88
2023/12/15 17:00:35;;;;;;;;;;;;;;;8.94;58.93;101691.04;106254;1255;61678;-88
2023/12/15 17:03:15;;;;;;;;;;;;;;;8.95;59.22;101694.81;106682;1253;76904;-89
2023/12/15 17:05:55;;;;;;;;;;;;;;;8.93;59.19;101697.77;106291;1254;70613;-88
2023/12/15 17:08:36;;;;;;;;;;;;;;;9.10;58.46;101697.13;106317;1254;74862;-88
2023/12/15 17:11:16;;;;;;;;;;;;;;;9.12;57.73;101700.52;106344;1254;61357;-88
2023/12/15 17:13:56;;;;;;;;;;;;;;;9.04;57.30;101717.50;106441;1255;61210;-88
2023/12/15 17:16:36;;;;;;;;;;;;;;;9.16;56.91;101722.27;106266;1253;75433;-88
2023/12/15 17:19:16;;;;;;;;;;;;;;;9.20;56.17;101723.80;106497;1253;70353;-87
2023/12/15 17:21:55;;;;;;;;;;;;;;;9.09;55.43;101733.64;106279;1253;70430;-86
2023/12/15 17:24:36;;;;;;;;;;;;;;;8.98;54.97;101743.52;106326;1253;63074;-88
2023/12/15 17:27:16;;;;;;;;;;;;;;;8.99;54.59;101757.23;106446;1254;61300;-87
2023/12/15 17:29:56;;;;;;;;;;;;;;;9.01;54.17;101762.57;106212;1253;76864;-87
2023/12/15 17:32:36;;;;;;;;;;;;;;;9.04;53.82;101766.08;106308;1255;67188;-87
2023/12/15 17:35:16;;;;;;;;;;;;;;;9.14;53.33;101764.77;106227;1259;74922;-87
2023/12/15 17:37:56;;;;;;;;;;;;;;;9.31;52.74;101767.45;106270;1254;61314;-88
2023/12/15 17:40:36;;;;;;;;;;;;;;;9.37;52.23;101773.60;106348;1256;61283;-88
2023/12/15 17:43:17;;;;;;;;;;;;;;;9.29;51.30;101773.34;106465;1258;75120;-88
2023/12/15 17:45:57;;;;;;;;;;;;;;;9.21;49.68;101783.69;106426;1254;70306;-88
2023/12/15 17:48:37;;;;;;;;;;;;;;;9.21;49.24;101786.74;106443;1254;73324;-87